Superior Township, Michigan
Current Conditions -  °F | °C
As of 7:53 PM on Monday 22 Dec 2014 (Local Time) from KARB Reporting Station
Overcast Overcast  
Wind Chill: 29°   Ceiling: 8000
Heat Index: 35°   Visibility: 8mi
Dew Point: 30°   Wind: 8mph
Humidity: 82%   Direction: 90°E
Pressure: 29.9"   Gusts: NA
Location:  42.3281°N, 83.7037°W
Report Text: KARB 230053Z AUTO 09007KT 8SM OVC080 02/M01 A2990 RMK AO2 SLP134 T00171011
Loading
Personal Weather Stations






























Interactive Weather Map New forecast layout! Learn more

10-Day Weather Forecast

Advertisements
Track Severe Weather on mobile